createdAt,value
2022-11-29T00:00:55.313Z,5.60
2022-11-29T00:05:57.066Z,5.80
2022-11-29T00:11:03.751Z,5.70
2022-11-29T00:16:09.100Z,5.80
2022-11-29T00:21:10.853Z,5.90
2022-11-29T00:26:12.531Z,5.80
2022-11-29T00:31:17.128Z,5.80
2022-11-29T00:36:19.287Z,5.70
2022-11-29T00:41:21.103Z,5.70
2022-11-29T00:46:24.261Z,5.70
2022-11-29T00:51:26.094Z,5.60
2022-11-29T00:56:27.952Z,5.60
2022-11-29T01:01:31.143Z,5.50
2022-11-29T01:06:33.015Z,5.60
2022-11-29T01:11:35.340Z,5.60
2022-11-29T01:16:38.546Z,5.60
2022-11-29T01:21:40.332Z,5.50
2022-11-29T01:26:42.020Z,5.50
2022-11-29T01:31:45.176Z,5.50
2022-11-29T01:36:46.917Z,5.50
2022-11-29T01:41:48.626Z,5.50
2022-11-29T01:46:53.131Z,5.50
2022-11-29T01:51:59.822Z,5.50
2022-11-29T01:57:05.104Z,5.50
2022-11-29T02:02:15.014Z,5.50
2022-11-29T02:07:17.108Z,5.50
2022-11-29T02:12:29.135Z,5.50
2022-11-29T02:17:40.321Z,5.50
2022-11-29T02:22:47.383Z,5.50
2022-11-29T02:28:29.578Z,5.50
2022-11-29T02:34:04.591Z,5.50
2022-11-29T02:39:25.542Z,5.50
2022-11-29T02:44:59.969Z,5.50
2022-11-29T02:50:21.169Z,5.50
2022-11-29T02:55:30.101Z,5.50
2022-11-29T03:00:36.167Z,5.50
2022-11-29T03:05:44.407Z,5.50
2022-11-29T03:10:56.047Z,5.50
2022-11-29T03:16:02.572Z,5.50
2022-11-29T03:21:17.941Z,5.50
2022-11-29T03:26:26.532Z,5.50
2022-11-29T03:31:33.902Z,5.40
2022-11-29T03:36:44.191Z,5.40
2022-11-29T03:41:51.500Z,5.40
2022-11-29T03:46:58.354Z,5.30
2022-11-29T03:52:08.193Z,5.30
2022-11-29T03:57:10.891Z,5.30
2022-11-29T04:02:53.950Z,5.20
2022-11-29T04:08:13.621Z,5.20
2022-11-29T04:13:50.483Z,5.20
2022-11-29T04:19:35.964Z,5.20
2022-11-29T04:25:22.452Z,5.20
2022-11-29T04:30:25.627Z,5.20
2022-11-29T04:35:49.921Z,5.20
2022-11-29T04:41:07.323Z,5.20
2022-11-29T04:46:22.105Z,5.20
2022-11-29T04:51:36.623Z,5.20
2022-11-29T04:56:44.761Z,5.20
2022-11-29T05:02:01.798Z,5.50
2022-11-29T05:07:08.683Z,5.50
2022-11-29T05:12:20.607Z,5.50
2022-11-29T05:17:32.385Z,5.50
2022-11-29T05:22:45.727Z,5.40
2022-11-29T05:27:56.701Z,5.40
2022-11-29T05:33:14.531Z,5.40
2022-11-29T05:38:42.283Z,5.50
2022-11-29T05:43:54.474Z,5.40
2022-11-29T05:49:04.123Z,5.40
2022-11-29T05:54:19.747Z,5.40
2022-11-29T05:59:27.171Z,5.40
2022-11-29T06:04:39.577Z,5.30
2022-11-29T06:09:45.758Z,5.30
2022-11-29T06:15:21.123Z,5.20
2022-11-29T06:20:37.841Z,5.30
2022-11-29T06:25:51.623Z,5.30
2022-11-29T06:31:01.769Z,5.50
2022-11-29T06:36:18.650Z,5.60
2022-11-29T06:41:22.709Z,5.60
2022-11-29T06:46:39.392Z,5.60
2022-11-29T06:52:16.507Z,5.50
2022-11-29T06:57:24.399Z,5.40
2022-11-29T07:02:52.014Z,5.40
2022-11-29T07:07:56.448Z,5.30
2022-11-29T07:12:58.765Z,5.30
2022-11-29T07:18:13.859Z,5.30
2022-11-29T07:23:24.763Z,5.40
2022-11-29T07:28:40.382Z,5.50
2022-11-29T07:34:09.386Z,5.60
2022-11-29T07:39:22.180Z,5.70
2022-11-29T07:44:34.075Z,5.70
2022-11-29T07:49:37.236Z,5.80
2022-11-29T07:54:40.298Z,5.80
2022-11-29T07:59:42.157Z,5.80
2022-11-29T08:04:45.649Z,5.80
2022-11-29T08:09:47.821Z,5.80
2022-11-29T08:14:49.711Z,5.90
2022-11-29T08:19:52.922Z,5.90
2022-11-29T08:24:54.729Z,5.90
2022-11-29T08:29:56.535Z,5.90
2022-11-29T08:34:59.848Z,5.90
2022-11-29T08:40:01.632Z,5.90
2022-11-29T08:45:04.126Z,6.00
2022-11-29T08:50:10.806Z,6.00
2022-11-29T08:55:12.647Z,6.00
2022-11-29T09:00:15.461Z,6.10
2022-11-29T09:05:18.986Z,6.10
2022-11-29T09:10:20.727Z,6.10
2022-11-29T09:15:22.392Z,6.20
2022-11-29T09:20:25.449Z,6.20
2022-11-29T09:25:27.550Z,6.20
2022-11-29T09:30:29.614Z,6.20
2022-11-29T09:35:33.292Z,6.30
2022-11-29T09:40:42.256Z,6.30
2022-11-29T09:45:48.068Z,6.30
2022-11-29T09:50:57.299Z,6.30
2022-11-29T09:56:14.428Z,6.30
2022-11-29T10:01:21.511Z,6.30
2022-11-29T10:06:27.943Z,6.40
2022-11-29T10:11:34.918Z,6.40
2022-11-29T10:16:43.648Z,6.50
2022-11-29T10:21:53.860Z,6.60
2022-11-29T10:26:55.755Z,6.60
2022-11-29T10:31:58.178Z,6.60
2022-11-29T10:37:01.722Z,6.70
2022-11-29T10:42:04.687Z,6.80
2022-11-29T10:47:10.666Z,6.80
2022-11-29T10:52:18.016Z,6.90
2022-11-29T10:57:21.738Z,7.10
2022-11-29T11:02:23.586Z,7.00
2022-11-29T11:07:31.050Z,6.90
2022-11-29T11:12:34.887Z,6.90
2022-11-29T11:17:36.603Z,6.90
2022-11-29T11:22:40.605Z,6.90
2022-11-29T11:27:42.375Z,6.90
2022-11-29T11:33:08.608Z,7.00
2022-11-29T11:38:17.375Z,7.00
2022-11-29T11:43:21.139Z,7.10
2022-11-29T11:48:23.069Z,7.10
2022-11-29T11:53:28.891Z,7.20
2022-11-29T11:58:33.059Z,7.20
2022-11-29T12:03:52.481Z,7.20
2022-11-29T12:09:02.039Z,7.20
2022-11-29T12:14:05.940Z,7.20
2022-11-29T12:19:16.564Z,7.30
2022-11-29T12:24:27.922Z,7.30
2022-11-29T12:29:35.587Z,7.40
2022-11-29T12:34:52.643Z,7.40
2022-11-29T12:40:08.222Z,7.40
2022-11-29T12:45:33.515Z,7.50
2022-11-29T12:50:45.452Z,7.80
2022-11-29T12:55:57.184Z,7.60
2022-11-29T13:01:07.704Z,7.60
2022-11-29T13:06:20.641Z,7.50
2022-11-29T13:11:28.368Z,7.70
2022-11-29T13:16:41.131Z,7.90
2022-11-29T13:21:51.326Z,7.70
2022-11-29T13:26:55.195Z,7.70
2022-11-29T13:31:57.933Z,7.70
2022-11-29T13:37:07.974Z,7.70
2022-11-29T13:42:19.928Z,7.70
2022-11-29T13:47:22.200Z,7.80
2022-11-29T13:52:31.060Z,7.70
2022-11-29T13:58:14.827Z,7.80
2022-11-29T14:03:30.136Z,8.00
2022-11-29T14:08:55.051Z,7.80
2022-11-29T14:14:03.348Z,7.70
2022-11-29T14:19:19.616Z,7.70
2022-11-29T14:24:40.682Z,7.80
2022-11-29T14:29:54.193Z,7.70
2022-11-29T14:35:02.717Z,7.70
2022-11-29T14:40:20.482Z,7.80
2022-11-29T14:45:27.102Z,8.00
2022-11-29T14:50:32.621Z,8.00
2022-11-29T14:55:40.681Z,8.10
2022-11-29T15:01:09.710Z,7.90
2022-11-29T15:06:17.503Z,7.70
2022-11-29T15:11:30.264Z,7.60
2022-11-29T15:16:49.438Z,7.50
2022-11-29T15:21:59.953Z,7.50
2022-11-29T15:27:03.015Z,7.40
2022-11-29T15:32:06.657Z,7.50
2022-11-29T15:37:22.040Z,7.70
2022-11-29T15:42:25.308Z,7.40
2022-11-29T15:47:31.510Z,7.30
2022-11-29T15:52:38.165Z,7.30
2022-11-29T15:57:42.913Z,7.20
2022-11-29T16:02:50.293Z,7.40
2022-11-29T16:07:54.762Z,7.30
2022-11-29T16:12:58.662Z,7.40
2022-11-29T16:18:05.740Z,7.30
2022-11-29T16:23:12.891Z,7.20
2022-11-29T16:28:14.838Z,7.00
2022-11-29T16:33:22.694Z,6.90
2022-11-29T16:38:24.553Z,6.80
2022-11-29T16:43:47.932Z,6.80
2022-11-29T16:48:52.048Z,6.70
2022-11-29T16:53:54.169Z,6.50
2022-11-29T16:59:25.064Z,6.60
2022-11-29T17:04:32.624Z,6.60
2022-11-29T17:09:35.129Z,6.60
2022-11-29T17:14:36.942Z,6.60
2022-11-29T17:19:40.091Z,6.60
2022-11-29T17:24:46.364Z,6.70
2022-11-29T17:29:49.346Z,6.70
2022-11-29T17:34:52.552Z,6.70
2022-11-29T17:39:54.343Z,7.00
2022-11-29T17:44:56.055Z,6.80
2022-11-29T17:49:59.288Z,6.70
2022-11-29T17:55:01.180Z,6.60
2022-11-29T18:00:04.040Z,6.60
2022-11-29T18:05:08.280Z,6.50
2022-11-29T18:10:17.681Z,6.60
2022-11-29T18:15:19.695Z,6.70
2022-11-29T18:20:22.954Z,6.90
2022-11-29T18:25:40.485Z,6.90
2022-11-29T18:30:42.325Z,7.00
2022-11-29T18:35:45.509Z,7.00
2022-11-29T18:40:47.411Z,7.00
2022-11-29T18:45:49.116Z,7.10
2022-11-29T18:50:52.252Z,7.10
2022-11-29T18:56:00.245Z,7.30
2022-11-29T19:01:06.515Z,7.20
2022-11-29T19:06:11.540Z,7.00
2022-11-29T19:11:15.041Z,6.90
2022-11-29T19:16:18.250Z,6.70
2022-11-29T19:21:23.177Z,6.60
2022-11-29T19:26:26.494Z,6.60
2022-11-29T19:31:28.659Z,6.50
2022-11-29T19:36:32.070Z,6.50
2022-11-29T19:41:35.499Z,6.60
2022-11-29T19:46:39.248Z,6.50
2022-11-29T19:51:42.431Z,6.40
2022-11-29T19:56:44.196Z,6.30
2022-11-29T20:01:46.059Z,6.20
2022-11-29T20:06:49.289Z,6.10
2022-11-29T20:11:51.024Z,6.10
2022-11-29T20:16:52.767Z,6.00
2022-11-29T20:21:55.916Z,5.90
2022-11-29T20:26:57.667Z,5.80
2022-11-29T20:31:59.545Z,5.80
2022-11-29T20:37:29.932Z,5.70
2022-11-29T20:43:09.809Z,5.80
2022-11-29T20:48:17.500Z,5.80
2022-11-29T20:53:32.643Z,5.70
2022-11-29T20:58:34.709Z,5.70
2022-11-29T21:03:36.619Z,5.70
2022-11-29T21:08:39.850Z,5.60
2022-11-29T21:13:41.990Z,5.60
2022-11-29T21:18:44.549Z,5.40
2022-11-29T21:23:55.398Z,5.40
2022-11-29T21:29:07.219Z,5.30
2022-11-29T21:34:09.015Z,5.30
2022-11-29T21:39:15.033Z,5.30
2022-11-29T21:44:16.717Z,5.30
2022-11-29T21:49:18.420Z,5.20
2022-11-29T21:54:21.472Z,5.20
2022-11-29T21:59:23.325Z,5.20
2022-11-29T22:04:25.073Z,5.10
2022-11-29T22:09:28.155Z,5.00
2022-11-29T22:14:29.864Z,4.90
2022-11-29T22:19:33.065Z,4.90
2022-11-29T22:24:36.913Z,4.90
2022-11-29T22:29:38.863Z,4.90
2022-11-29T22:34:40.633Z,5.00
2022-11-29T22:39:43.666Z,5.00
2022-11-29T22:44:45.652Z,5.10
2022-11-29T22:49:47.603Z,5.10
2022-11-29T22:54:50.696Z,5.10
2022-11-29T22:59:52.478Z,5.10
2022-11-29T23:04:54.321Z,5.10
2022-11-29T23:09:57.459Z,5.20
2022-11-29T23:14:59.412Z,5.10
2022-11-29T23:20:01.262Z,5.10
2022-11-29T23:25:05.172Z,5.20
2022-11-29T23:30:08.032Z,5.10
2022-11-29T23:35:09.874Z,5.20
2022-11-29T23:40:13.783Z,5.20
2022-11-29T23:45:15.628Z,5.10
2022-11-29T23:50:17.412Z,5.10
2022-11-29T23:55:20.711Z,5.10
